Time;durP1;ratioP1;P1;durP2;ratioP2;P2;SDS_P1;SDS_P2;PMS_P1;PMS_P2;Temp;Humidity;BMP_temperature;BMP_pressure;BME280_temperature;BME280_humidity;BME280_pressure;Samples;Min_cycle;Max_cycle;Signal;HPM_P1;HPM_P2
2022/04/04 00:01:26;;;;;;;3.40;3.17;;;-1.40;99.90;;;;;;5066604;28;20195;-72
2022/04/04 00:03:51;;;;;;;3.90;3.57;;;-1.40;99.90;;;;;;5068849;28;20186;-72
2022/04/04 00:06:17;;;;;;;4.30;3.07;;;-1.40;99.90;;;;;;5064862;28;20206;-72
2022/04/04 00:08:43;;;;;;;3.50;3.17;;;-1.50;99.90;;;;;;5062776;28;20185;-72
2022/04/04 00:11:09;;;;;;;3.23;3.03;;;-1.40;99.90;;;;;;5069849;28;20183;-72
2022/04/04 00:13:35;;;;;;;3.50;3.30;;;-1.50;99.90;;;;;;5054475;28;20172;-72
2022/04/04 00:16:00;;;;;;;3.63;3.33;;;-1.30;99.90;;;;;;5070739;28;20270;-72
2022/04/04 00:18:26;;;;;;;3.10;2.90;;;-1.30;99.90;;;;;;5065800;28;20234;-71
2022/04/04 00:20:52;;;;;;;4.50;3.50;;;-1.30;99.90;;;;;;5062981;28;20293;-72
2022/04/04 00:23:18;;;;;;;3.43;3.23;;;-1.40;99.90;;;;;;5062596;28;20658;-72
2022/04/04 00:25:45;;;;;;;3.40;3.20;;;-1.50;99.90;;;;;;5063943;28;20206;-72
2022/04/04 00:28:12;;;;;;;3.57;3.33;;;-1.50;99.90;;;;;;5071930;28;20214;-72
2022/04/04 00:30:38;;;;;;;3.00;2.80;;;-1.50;99.90;;;;;;5073308;28;20685;-72
2022/04/04 00:33:05;;;;;;;3.20;3.00;;;-1.60;99.90;;;;;;5063333;28;20264;-72
2022/04/04 00:35:30;;;;;;;4.33;3.93;;;-1.70;99.90;;;;;;5073744;28;20755;-72
2022/04/04 00:37:58;;;;;;;3.77;3.47;;;-1.70;99.90;;;;;;5070094;28;20183;-72
2022/04/04 00:40:25;;;;;;;3.30;3.10;;;-1.70;99.90;;;;;;5070045;28;20199;-71
2022/04/04 00:42:51;;;;;;;3.03;2.83;;;-1.70;99.90;;;;;;5061792;28;20736;-71
2022/04/04 00:45:17;;;;;;;3.63;3.33;;;-1.80;99.90;;;;;;5070046;28;20171;-71
2022/04/04 00:47:43;;;;;;;3.27;3.00;;;-1.80;99.90;;;;;;5074065;28;20258;-71
2022/04/04 00:50:09;;;;;;;6.40;3.47;;;-1.80;99.90;;;;;;5073987;28;20206;-71
2022/04/04 00:52:34;;;;;;;3.50;3.20;;;-1.80;99.90;;;;;;5068033;28;20184;-72
2022/04/04 00:55:00;;;;;;;3.83;3.33;;;-1.70;99.90;;;;;;5071078;28;20187;-72
2022/04/04 00:57:27;;;;;;;3.43;3.13;;;-1.70;99.90;;;;;;5064119;28;20203;-72
2022/04/04 00:59:53;;;;;;;3.70;3.50;;;-1.70;99.90;;;;;;5064036;28;20304;-71
2022/04/04 01:02:19;;;;;;;3.13;2.93;;;-1.70;99.90;;;;;;5055337;28;20259;-72
2022/04/04 01:04:45;;;;;;;3.30;3.10;;;-1.80;99.90;;;;;;5065340;28;20167;-72
2022/04/04 01:07:10;;;;;;;6.77;3.43;;;-1.70;99.90;;;;;;5072656;28;20191;-72
2022/04/04 01:09:36;;;;;;;3.60;3.40;;;-1.80;99.90;;;;;;5065288;28;20187;-72
2022/04/04 01:12:08;;;;;;;3.63;3.40;;;-1.80;99.90;;;;;;5073586;28;20190;-72
2022/04/04 01:14:36;;;;;;;3.10;2.90;;;-1.80;99.90;;;;;;5073083;28;20172;-72
2022/04/04 01:17:03;;;;;;;3.20;3.00;;;-1.80;99.90;;;;;;5069532;28;20210;-72
2022/04/04 01:19:28;;;;;;;4.00;3.70;;;-1.80;99.90;;;;;;5052088;28;20180;-72
2022/04/04 01:21:54;;;;;;;3.40;3.13;;;-1.80;99.90;;;;;;5053342;28;20216;-72
2022/04/04 01:24:23;;;;;;;3.73;3.43;;;-1.70;99.90;;;;;;5065206;28;20225;-72
2022/04/04 01:26:50;;;;;;;3.33;3.13;;;-1.70;99.90;;;;;;5064420;28;20578;-72
2022/04/04 01:29:16;;;;;;;5.20;3.53;;;-1.70;99.90;;;;;;5073250;28;20258;-72
2022/04/04 01:31:42;;;;;;;3.13;2.77;;;-1.80;99.90;;;;;;5072914;28;20258;-72
2022/04/04 01:34:08;;;;;;;4.10;3.70;;;-2.00;99.90;;;;;;5071980;28;20206;-71
2022/04/04 01:36:34;;;;;;;3.10;2.73;;;-2.10;99.90;;;;;;5062555;28;20203;-71
2022/04/04 01:39:00;;;;;;;4.30;3.50;;;-2.10;99.90;;;;;;5071580;28;20564;-71
2022/04/04 01:41:26;;;;;;;3.83;3.63;;;-2.10;99.90;;;;;;5072919;28;20212;-72
2022/04/04 01:43:52;;;;;;;3.67;3.37;;;-2.10;99.90;;;;;;5071646;28;20258;-72
2022/04/04 01:46:23;;;;;;;4.17;3.27;;;-2.20;99.90;;;;;;5052658;28;20281;-72
2022/04/04 01:48:50;;;;;;;3.43;3.23;;;-2.10;99.90;;;;;;5052670;28;20161;-72
2022/04/04 01:51:16;;;;;;;4.87;4.57;;;-2.20;99.90;;;;;;5057214;28;20214;-72
2022/04/04 01:53:41;;;;;;;3.93;3.57;;;-2.20;99.90;;;;;;5065261;28;20213;-72
2022/04/04 01:56:07;;;;;;;3.70;3.40;;;-2.30;99.90;;;;;;5052375;28;20200;-72
2022/04/04 01:58:34;;;;;;;4.83;4.07;;;-2.40;99.90;;;;;;5052643;28;20717;-72
2022/04/04 02:01:01;;;;;;;4.13;3.73;;;-2.40;99.90;;;;;;5056478;28;20677;-72
2022/04/04 02:03:35;;;;;;;3.80;3.47;;;-2.40;99.90;;;;;;5064731;28;20183;-72
2022/04/04 02:06:02;;;;;;;3.67;3.47;;;-2.40;99.90;;;;;;5050840;28;20685;-72
2022/04/04 02:11:50;;;;;;;3.53;3.33;;;-2.50;99.90;;;;;;5061993;28;20696;-72
2022/04/04 02:14:15;;;;;;;4.00;3.70;;;-2.50;99.90;;;;;;5067364;28;20182;-72
2022/04/04 02:16:42;;;;;;;3.83;3.53;;;-2.50;99.90;;;;;;5070565;28;20697;-72
2022/04/04 02:19:09;;;;;;;4.43;3.90;;;-2.60;99.90;;;;;;5072255;28;20531;-72
2022/04/04 02:21:35;;;;;;;4.10;3.80;;;-2.70;99.90;;;;;;5063644;28;20942;-72
2022/04/04 02:24:01;;;;;;;4.47;4.13;;;-2.70;99.90;;;;;;5071492;28;20672;-72
2022/04/04 02:26:27;;;;;;;3.73;3.50;;;-2.70;99.90;;;;;;5072875;28;20211;-71
2022/04/04 02:28:53;;;;;;;4.37;3.97;;;-2.80;99.90;;;;;;5082277;28;20175;-71
2022/04/04 02:31:19;;;;;;;4.30;4.00;;;-2.80;99.90;;;;;;5087067;28;20248;-71
2022/04/04 02:33:45;;;;;;;4.37;4.00;;;-2.80;99.90;;;;;;5071229;28;20183;-71
2022/04/04 02:36:11;;;;;;;3.80;3.50;;;-2.80;99.90;;;;;;5055080;28;20227;-72
2022/04/04 02:38:37;;;;;;;4.97;4.47;;;-2.80;99.90;;;;;;5052236;28;20553;-72
2022/04/04 02:41:04;;;;;;;5.97;4.33;;;-2.80;99.90;;;;;;5051770;28;20204;-72
2022/04/04 02:43:30;;;;;;;4.73;4.40;;;-2.80;99.90;;;;;;5065598;28;20650;-72
2022/04/04 02:45:56;;;;;;;4.83;4.43;;;-2.80;99.90;;;;;;5064269;28;20249;-72
2022/04/04 02:48:22;;;;;;;4.83;4.43;;;-2.80;99.90;;;;;;5071818;28;20630;-72
2022/04/04 02:50:47;;;;;;;5.60;5.10;;;-2.80;99.90;;;;;;5067990;28;20612;-72
2022/04/04 02:53:14;;;;;;;4.63;4.30;;;-2.90;99.90;;;;;;5067632;28;20248;-72
2022/04/04 02:58:23;;;;;;;5.30;4.70;;;-2.90;99.90;;;;;;5071958;28;20244;-72
2022/04/04 03:00:49;;;;;;;4.50;4.10;;;-2.90;99.90;;;;;;5063282;28;20203;-72
2022/04/04 03:03:15;;;;;;;4.90;4.07;;;-3.00;99.90;;;;;;5071282;28;20591;-71
2022/04/04 03:05:41;;;;;;;5.17;4.77;;;-3.00;99.90;;;;;;5066651;28;20207;-72
2022/04/04 03:08:07;;;;;;;5.10;4.60;;;-3.00;99.90;;;;;;5051583;28;20267;-72
2022/04/04 03:10:34;;;;;;;5.40;4.73;;;-3.00;99.90;;;;;;5051262;28;20187;-71
2022/04/04 03:13:00;;;;;;;5.10;4.60;;;-3.00;99.90;;;;;;5067737;28;20664;-71
2022/04/04 03:15:26;;;;;;;5.13;4.33;;;-3.10;99.90;;;;;;5089162;28;20175;-71
2022/04/04 03:17:54;;;;;;;4.47;4.17;;;-3.10;99.90;;;;;;5091699;28;20181;-71
2022/04/04 03:20:22;;;;;;;5.37;4.60;;;-3.10;99.90;;;;;;5067785;28;20218;-72
2022/04/04 03:22:50;;;;;;;9.07;5.37;;;-3.20;99.90;;;;;;5065299;28;20653;-72
2022/04/04 03:25:17;;;;;;;4.93;4.53;;;-3.30;99.90;;;;;;5060582;28;20196;-72
2022/04/04 03:27:44;;;;;;;5.83;4.73;;;-3.30;99.90;;;;;;5068078;28;20179;-72
2022/04/04 03:30:21;;;;;;;5.03;4.53;;;-3.30;99.90;;;;;;5071476;28;20179;-72
2022/04/04 03:32:51;;;;;;;5.13;4.63;;;-3.30;99.90;;;;;;5069888;28;20179;-72
2022/04/04 03:35:17;;;;;;;4.60;4.27;;;-3.30;99.90;;;;;;5067646;28;20245;-72
2022/04/04 03:37:46;;;;;;;5.20;4.70;;;-3.30;99.90;;;;;;5068346;28;20518;-72
2022/04/04 03:40:13;;;;;;;4.77;4.43;;;-3.30;99.90;;;;;;5057793;28;20215;-72
2022/04/04 03:42:40;;;;;;;5.03;4.53;;;-3.20;99.90;;;;;;5055093;28;20183;-72
2022/04/04 03:45:07;;;;;;;5.20;4.70;;;-3.20;99.90;;;;;;5060944;28;20182;-72
2022/04/04 03:47:33;;;;;;;5.97;5.47;;;-3.20;99.90;;;;;;5058901;28;20200;-72
2022/04/04 03:49:59;;;;;;;4.73;4.30;;;-3.30;99.90;;;;;;5061366;28;20634;-72
2022/04/04 03:52:28;;;;;;;5.40;4.73;;;-3.30;99.90;;;;;;5065915;28;20175;-72
2022/04/04 03:54:53;;;;;;;6.53;5.17;;;-3.40;99.90;;;;;;5063008;28;20191;-72
2022/04/04 03:57:20;;;;;;;4.93;4.60;;;-3.40;99.90;;;;;;5060623;28;20204;-72
2022/04/04 03:59:45;;;;;;;5.37;4.97;;;-3.50;99.90;;;;;;5063534;28;20186;-72
2022/04/04 04:02:12;;;;;;;6.30;5.70;;;-3.50;99.90;;;;;;5071843;28;20187;-72
2022/04/04 04:04:38;;;;;;;6.67;5.90;;;-3.50;99.90;;;;;;5074065;28;20175;-72
2022/04/04 04:07:05;;;;;;;6.50;5.73;;;-3.60;99.90;;;;;;5074099;28;20236;-72
2022/04/04 04:09:31;;;;;;;5.73;5.20;;;-3.60;99.90;;;;;;5072465;28;20184;-72
2022/04/04 04:11:57;;;;;;;7.50;5.53;;;-3.70;99.90;;;;;;5068694;28;20723;-72
2022/04/04 04:14:25;;;;;;;6.30;5.37;;;-3.70;99.90;;;;;;5061882;28;20179;-72
2022/04/04 04:16:50;;;;;;;6.73;5.80;;;-3.70;99.90;;;;;;5068745;28;20682;-72
2022/04/04 04:22:00;;;;;;;7.03;5.80;;;-3.70;99.90;;;;;;5069796;28;20202;-71
2022/04/04 04:24:26;;;;;;;7.87;6.07;;;-3.80;99.90;;;;;;5070633;28;20175;-71
2022/04/04 04:26:53;;;;;;;7.13;6.17;;;-3.80;99.90;;;;;;5067338;28;20233;-72
2022/04/04 04:29:19;;;;;;;6.23;5.67;;;-3.80;99.90;;;;;;5064749;28;20191;-72
2022/04/04 04:31:45;;;;;;;6.50;5.80;;;-3.80;99.90;;;;;;5065325;28;20688;-72
2022/04/04 04:34:10;;;;;;;6.90;6.30;;;-3.80;99.90;;;;;;5067232;28;20219;-72
2022/04/04 04:36:39;;;;;;;7.00;6.33;;;-3.80;99.90;;;;;;5064715;28;20543;-71
2022/04/04 04:39:08;;;;;;;7.57;6.07;;;-3.80;99.90;;;;;;5066474;28;20174;-72
2022/04/04 04:41:34;;;;;;;7.07;6.47;;;-3.80;99.90;;;;;;5071969;28;20188;-72
2022/04/04 04:44:03;;;;;;;6.60;5.87;;;-3.80;99.90;;;;;;5074463;28;20329;-72
2022/04/04 04:46:30;;;;;;;6.50;5.90;;;-3.70;99.90;;;;;;5074055;28;20282;-72
2022/04/04 04:48:56;;;;;;;6.80;6.20;;;-3.70;99.90;;;;;;5074379;28;20168;-73
2022/04/04 04:51:22;;;;;;;7.30;6.60;;;-3.70;99.90;;;;;;5064923;28;20572;-72
2022/04/04 04:53:47;;;;;;;7.33;6.73;;;-3.70;99.90;;;;;;5068892;28;20214;-72
2022/04/04 04:56:13;;;;;;;7.33;6.10;;;-3.70;99.90;;;;;;5067955;28;20232;-72
2022/04/04 04:58:38;;;;;;;7.37;6.67;;;-3.70;99.90;;;;;;5064423;28;20187;-72
2022/04/04 05:01:04;;;;;;;8.13;7.33;;;-3.70;99.90;;;;;;5070329;28;20191;-72
2022/04/04 05:03:30;;;;;;;9.07;6.50;;;-3.60;99.90;;;;;;5065301;28;20179;-73
2022/04/04 05:05:55;;;;;;;7.67;6.80;;;-3.60;99.90;;;;;;5062778;28;20199;-73
2022/04/04 05:08:21;;;;;;;7.60;6.90;;;-3.50;99.90;;;;;;5062039;28;20297;-73
2022/04/04 05:10:47;;;;;;;8.07;7.27;;;-3.50;99.90;;;;;;5061633;28;20206;-73
2022/04/04 05:13:13;;;;;;;8.13;7.33;;;-3.40;99.90;;;;;;5062129;28;20184;-73
2022/04/04 05:15:39;;;;;;;8.00;7.30;;;-3.30;99.90;;;;;;5068215;28;20332;-72
2022/04/04 05:18:05;;;;;;;8.63;7.47;;;-3.20;99.90;;;;;;5067254;28;20203;-73
2022/04/04 05:20:30;;;;;;;8.23;7.43;;;-3.10;99.90;;;;;;5064264;28;20264;-72
2022/04/04 05:22:57;;;;;;;8.67;7.87;;;-3.00;99.90;;;;;;5059752;28;20184;-72
2022/04/04 05:25:23;;;;;;;11.80;8.83;;;-3.00;99.90;;;;;;5061092;28;20278;-72
2022/04/04 05:27:50;;;;;;;10.73;7.87;;;-2.90;99.90;;;;;;5064364;28;20642;-72
2022/04/04 05:30:16;;;;;;;9.90;8.93;;;-2.90;99.90;;;;;;5058396;28;20666;-71
2022/04/04 05:32:43;;;;;;;8.53;7.73;;;-2.80;99.90;;;;;;5065279;28;20186;-71
2022/04/04 05:35:11;;;;;;;10.93;9.07;;;-2.70;99.90;;;;;;5053269;28;20191;-72
2022/04/04 05:37:37;;;;;;;9.00;8.00;;;-2.60;99.90;;;;;;5081734;28;20172;-71
2022/04/04 05:40:03;;;;;;;9.37;7.70;;;-2.50;99.90;;;;;;5082833;28;20275;-71
2022/04/04 05:42:30;;;;;;;8.80;8.00;;;-2.50;99.90;;;;;;5068970;28;20233;-73
2022/04/04 05:44:56;;;;;;;10.27;8.90;;;-2.40;99.90;;;;;;5065904;28;20179;-75
2022/04/04 05:47:22;;;;;;;9.90;8.27;;;-2.30;99.90;;;;;;5058397;28;20234;-73
2022/04/04 05:49:50;;;;;;;9.33;8.33;;;-2.20;99.90;;;;;;5062352;28;20658;-73
2022/04/04 05:52:18;;;;;;;9.30;8.00;;;-2.10;99.90;;;;;;5070562;28;20179;-73
2022/04/04 05:54:57;;;;;;;10.07;7.97;;;-2.10;99.90;;;;;;5072293;28;20175;-73
2022/04/04 05:57:24;;;;;;;8.73;7.83;;;-2.00;99.90;;;;;;5084353;28;20707;-73
2022/04/04 05:59:50;;;;;;;9.90;8.43;;;-1.90;99.90;;;;;;5072919;28;20195;-73
2022/04/04 06:02:16;;;;;;;11.40;8.97;;;-1.80;99.90;;;;;;5074437;28;20183;-73
2022/04/04 06:04:41;;;;;;;9.40;8.50;;;-1.60;99.90;;;;;;5077591;28;20182;-73
2022/04/04 06:07:07;;;;;;;10.50;8.30;;;-1.50;99.90;;;;;;5066024;28;20215;-72
2022/04/04 06:09:32;;;;;;;10.17;8.77;;;-1.40;99.90;;;;;;5069131;28;20183;-74
2022/04/04 06:11:58;;;;;;;9.60;8.60;;;-1.30;99.90;;;;;;5056515;28;20666;-72
2022/04/04 06:14:24;;;;;;;8.67;7.77;;;-1.10;99.90;;;;;;5069491;28;20213;-72
2022/04/04 06:16:49;;;;;;;8.90;8.10;;;-1.00;99.90;;;;;;5072707;28;20198;-72
2022/04/04 06:19:16;;;;;;;9.80;8.80;;;-0.90;99.90;;;;;;5067063;28;20183;-72
2022/04/04 06:21:42;;;;;;;10.20;8.57;;;-0.90;99.90;;;;;;5067888;28;20175;-71
2022/04/04 06:24:08;;;;;;;8.07;7.27;;;-0.80;99.90;;;;;;5067121;28;20242;-71
2022/04/04 06:26:34;;;;;;;8.03;7.30;;;-0.80;99.90;;;;;;5071229;28;20214;-71
2022/04/04 06:28:59;;;;;;;8.13;7.30;;;-0.60;99.90;;;;;;5059743;28;20601;-71
2022/04/04 06:31:25;;;;;;;9.40;8.03;;;-0.50;99.90;;;;;;5066884;28;20286;-72
2022/04/04 06:33:50;;;;;;;9.13;7.73;;;-0.40;99.90;;;;;;5068363;28;20188;-71
2022/04/04 06:36:16;;;;;;;9.27;8.40;;;-0.20;99.90;;;;;;5058182;28;20253;-70
2022/04/04 06:38:41;;;;;;;8.07;7.27;;;-0.10;99.90;;;;;;5061856;28;20175;-70
2022/04/04 06:41:08;;;;;;;7.93;7.10;;;0.00;99.90;;;;;;5061099;28;20187;-70
2022/04/04 06:43:34;;;;;;;8.53;7.60;;;0.10;99.90;;;;;;5071413;28;20182;-70
2022/04/04 06:46:00;;;;;;;8.30;7.10;;;0.20;99.90;;;;;;5069589;28;20195;-70
2022/04/04 06:48:26;;;;;;;7.50;6.80;;;0.30;99.90;;;;;;5050791;28;20176;-70
2022/04/04 06:50:52;;;;;;;11.07;8.00;;;0.40;99.90;;;;;;5051242;28;20246;-70
2022/04/04 06:53:21;;;;;;;8.87;7.97;;;0.40;99.90;;;;;;5051859;28;20682;-70
2022/04/04 06:55:47;;;;;;;7.83;7.10;;;0.40;99.90;;;;;;5065472;28;20199;-70
2022/04/04 06:58:13;;;;;;;9.33;7.73;;;0.40;99.90;;;;;;5070917;28;20189;-70
2022/04/04 07:00:39;;;;;;;8.07;7.23;;;0.30;99.90;;;;;;5065274;28;20212;-70
2022/04/04 07:03:07;;;;;;;8.47;6.90;;;0.40;99.90;;;;;;5065671;28;20647;-72
2022/04/04 07:05:33;;;;;;;7.03;6.37;;;0.40;99.90;;;;;;5067379;28;20228;-70
2022/04/04 07:07:58;;;;;;;9.33;7.10;;;0.50;99.90;;;;;;5079604;28;20641;-70
2022/04/04 07:10:24;;;;;;;7.50;6.80;;;0.50;99.90;;;;;;5077110;28;20211;-70
2022/04/04 07:12:50;;;;;;;9.10;6.67;;;0.70;99.90;;;;;;5065773;28;20242;-72
2022/04/04 07:15:15;;;;;;;7.63;6.73;;;0.80;99.90;;;;;;5066484;28;20643;-69
2022/04/04 07:17:43;;;;;;;6.40;5.80;;;0.80;99.90;;;;;;5068296;28;20179;-70
2022/04/04 07:20:09;;;;;;;7.90;6.67;;;0.90;99.90;;;;;;5066286;28;20544;-73
2022/04/04 07:22:36;;;;;;;7.57;6.40;;;1.00;99.90;;;;;;5069044;28;20252;-76
2022/04/04 07:25:07;;;;;;;6.77;6.17;;;0.90;99.90;;;;;;5078263;28;20210;-77
2022/04/04 07:27:33;;;;;;;6.93;6.27;;;0.90;99.90;;;;;;5088643;28;20225;-73
2022/04/04 07:29:59;;;;;;;8.03;6.47;;;0.70;99.90;;;;;;5066979;28;20602;-73
2022/04/04 07:32:25;;;;;;;7.27;6.57;;;0.80;99.90;;;;;;5055458;28;20263;-74
2022/04/04 07:34:51;;;;;;;6.83;6.13;;;0.90;99.90;;;;;;5069755;28;20233;-75
2022/04/04 07:37:16;;;;;;;9.30;5.90;;;1.00;99.90;;;;;;5057511;28;20291;-74
2022/04/04 07:39:42;;;;;;;8.07;6.87;;;1.10;99.90;;;;;;5062734;28;20175;-74
2022/04/04 07:42:08;;;;;;;7.67;6.90;;;1.30;99.90;;;;;;5074670;28;20186;-72
2022/04/04 07:44:34;;;;;;;8.17;6.73;;;1.40;99.90;;;;;;5075300;28;20306;-73
2022/04/04 07:47:00;;;;;;;6.93;6.30;;;1.40;99.90;;;;;;5064516;28;20200;-73
2022/04/04 07:49:26;;;;;;;7.27;5.77;;;1.50;99.90;;;;;;5062853;28;20198;-73
2022/04/04 07:51:52;;;;;;;7.17;5.30;;;1.60;99.90;;;;;;5076351;28;20218;-72
2022/04/04 07:54:18;;;;;;;7.27;4.83;;;1.70;99.90;;;;;;5067925;28;20189;-72
2022/04/04 07:56:44;;;;;;;5.87;5.33;;;1.90;99.90;;;;;;5073316;28;20199;-73
2022/04/04 07:59:11;;;;;;;7.10;6.50;;;1.90;99.90;;;;;;5082514;28;20179;-72
2022/04/04 08:01:37;;;;;;;7.37;6.23;;;1.80;99.90;;;;;;5094213;28;20181;-72
2022/04/04 08:04:02;;;;;;;5.60;5.10;;;1.80;99.90;;;;;;5055749;28;20183;-71
2022/04/04 08:06:28;;;;;;;5.83;5.23;;;1.80;99.90;;;;;;5054496;28;20200;-71
2022/04/04 08:08:53;;;;;;;5.30;4.80;;;1.90;99.90;;;;;;5065390;28;20179;-74
2022/04/04 08:11:19;;;;;;;5.83;5.33;;;2.10;99.90;;;;;;5074829;28;20211;-72
2022/04/04 08:13:45;;;;;;;4.67;4.27;;;2.10;99.90;;;;;;5074899;28;20258;-72
2022/04/04 08:16:11;;;;;;;5.07;4.13;;;2.30;99.90;;;;;;5085770;28;20222;-72
2022/04/04 08:18:38;;;;;;;3.70;3.40;;;2.30;99.90;;;;;;5090975;28;20183;-72
2022/04/04 08:21:04;;;;;;;6.27;4.97;;;2.40;99.90;;;;;;5086550;28;20207;-72
2022/04/04 08:23:31;;;;;;;4.70;4.30;;;2.50;99.90;;;;;;5062072;28;20218;-75
2022/04/04 08:25:57;;;;;;;4.80;4.40;;;2.60;99.90;;;;;;5074156;28;20206;-72
2022/04/04 08:28:23;;;;;;;4.57;4.23;;;2.70;99.90;;;;;;5074551;28;20182;-72
2022/04/04 08:30:50;;;;;;;3.30;3.10;;;2.80;99.90;;;;;;5074411;28;20199;-71
2022/04/04 08:33:17;;;;;;;5.07;4.60;;;2.90;99.90;;;;;;5066141;28;20195;-72
2022/04/04 08:35:42;;;;;;;6.43;5.80;;;2.90;99.90;;;;;;5081120;28;20188;-72
2022/04/04 08:38:08;;;;;;;5.40;4.90;;;2.90;99.90;;;;;;5073930;28;20186;-73
2022/04/04 08:40:35;;;;;;;3.87;3.27;;;2.90;99.90;;;;;;5064229;28;20651;-73
2022/04/04 08:43:02;;;;;;;5.47;4.97;;;2.90;99.90;;;;;;5054007;28;20578;-73
2022/04/04 08:45:28;;;;;;;5.53;4.67;;;3.00;99.90;;;;;;5059731;28;20191;-73
2022/04/04 08:47:55;;;;;;;4.60;4.20;;;3.10;99.90;;;;;;5056459;28;20192;-74
2022/04/04 08:50:21;;;;;;;4.53;4.23;;;3.20;99.90;;;;;;5059628;28;20253;-74
2022/04/04 08:52:48;;;;;;;6.77;6.17;;;3.40;99.90;;;;;;5063690;28;20258;-74
2022/04/04 08:55:15;;;;;;;4.53;4.13;;;3.50;99.90;;;;;;5076747;28;20239;-73
2022/04/04 08:57:44;;;;;;;3.50;3.30;;;3.70;99.90;;;;;;5063927;28;20179;-73
2022/04/04 09:00:10;;;;;;;4.60;4.10;;;3.90;99.90;;;;;;5083225;28;20185;-73
2022/04/04 09:02:37;;;;;;;4.20;3.90;;;4.10;99.90;;;;;;5075696;28;20266;-73
2022/04/04 09:05:04;;;;;;;4.47;3.40;;;4.50;99.90;;;;;;5073669;28;20187;-73
2022/04/04 09:07:30;;;;;;;3.60;3.30;;;5.80;99.90;;;;;;5061015;28;20456;-74
2022/04/04 09:09:56;;;;;;;3.87;3.57;;;8.20;95.70;;;;;;5070909;28;20258;-73
2022/04/04 09:12:24;;;;;;;2.90;2.70;;;10.30;82.10;;;;;;5072628;28;20611;-72
2022/04/04 09:14:55;;;;;;;3.25;3.05;;;12.50;67.20;;;;;;5067369;28;20266;-72
2022/04/04 09:17:27;;;;;;;4.57;4.18;;;13.90;57.70;;;;;;5084009;28;20247;-72
2022/04/04 09:19:52;;;;;;;3.30;3.00;;;15.90;54.20;;;;;;5070318;28;20654;-74
2022/04/04 09:22:19;;;;;;;4.57;4.18;;;17.40;50.40;;;;;;5063122;28;20176;-74
2022/04/04 09:24:51;;;;;;;3.80;3.45;;;17.90;46.30;;;;;;5069290;28;20174;-74
2022/04/04 09:27:22;;;;;;;3.58;3.28;;;18.10;45.50;;;;;;5083017;28;20214;-74
2022/04/04 09:29:50;;;;;;;3.33;3.05;;;19.10;43.10;;;;;;5072616;28;20167;-75
2022/04/04 09:32:15;;;;;;;3.80;3.50;;;20.00;42.00;;;;;;5061920;28;20199;-75
2022/04/04 09:35:04;;;;;;;4.00;3.70;;;20.60;40.60;;;;;;5068062;28;20182;-75
2022/04/04 09:37:32;;;;;;;4.47;3.70;;;21.00;39.90;;;;;;5071882;28;20203;-74
2022/04/04 09:40:18;;;;;;;3.45;3.17;;;18.60;42.00;;;;;;5075825;28;20656;-74
2022/04/04 09:42:57;;;;;;;3.30;3.08;;;17.20;39.90;;;;;;5067935;28;20245;-74
2022/04/04 09:45:25;;;;;;;2.97;2.78;;;14.90;41.60;;;;;;5069676;28;20202;-74
2022/04/04 09:47:56;;;;;;;3.35;2.95;;;13.50;44.00;;;;;;5073125;28;20178;-72
2022/04/04 09:50:28;;;;;;;4.63;3.65;;;12.70;45.40;;;;;;5071441;28;20241;-74
2022/04/04 09:52:53;;;;;;;4.43;3.55;;;12.20;46.60;;;;;;5067989;28;20175;-73
2022/04/04 09:55:34;;;;;;;3.60;3.40;;;12.00;47.40;;;;;;5066139;28;20224;-74
2022/04/04 09:58:06;;;;;;;4.32;3.63;;;12.00;47.90;;;;;;5081479;28;20171;-74
2022/04/04 10:00:34;;;;;;;3.55;3.35;;;11.40;48.70;;;;;;5073602;28;20172;-74
2022/04/04 10:03:01;;;;;;;3.50;3.22;;;10.90;50.10;;;;;;5064204;28;20180;-73
2022/04/04 10:05:28;;;;;;;3.85;3.55;;;10.50;51.40;;;;;;5067937;28;20666;-73
2022/04/04 10:07:56;;;;;;;3.80;2.70;;;11.40;50.50;;;;;;5069097;28;20194;-73
2022/04/04 10:10:39;;;;;;;3.05;2.92;;;11.40;49.00;;;;;;5072320;28;20612;-72
2022/04/04 10:13:06;;;;;;;4.70;4.28;;;11.10;50.00;;;;;;5067377;28;20175;-73
2022/04/04 10:15:36;;;;;;;3.75;3.42;;;10.50;50.60;;;;;;5069256;28;20179;-73
2022/04/04 10:18:02;;;;;;;3.40;3.10;;;10.00;52.00;;;;;;5073430;28;20177;-73
2022/04/04 10:20:28;;;;;;;3.90;3.40;;;9.70;53.90;;;;;;5069215;28;20172;-72
2022/04/04 10:22:55;;;;;;;3.65;3.38;;;10.00;53.00;;;;;;5060235;28;20560;-73
2022/04/04 10:25:26;;;;;;;3.35;3.13;;;10.40;51.40;;;;;;5060134;28;20695;-73
2022/04/04 10:27:52;;;;;;;3.53;3.30;;;10.30;51.40;;;;;;5065920;28;20265;-73
2022/04/04 10:30:29;;;;;;;3.25;3.03;;;9.90;52.20;;;;;;5076334;28;20760;-73
2022/04/04 10:32:55;;;;;;;2.95;2.75;;;10.00;52.00;;;;;;5068912;28;20262;-72
2022/04/04 10:35:26;;;;;;;3.70;3.30;;;10.00;52.70;;;;;;5069930;28;20619;-72
2022/04/04 10:37:56;;;;;;;3.75;3.45;;;10.30;53.30;;;;;;5071511;28;20606;-72
2022/04/04 10:40:28;;;;;;;2.05;1.88;;;10.50;53.80;;;;;;5062448;28;20191;-72
2022/04/04 10:43:14;;;;;;;3.22;2.92;;;10.70;51.20;;;;;;5069948;28;20536;-71
2022/04/04 10:45:58;;;;;;;3.50;3.20;;;10.70;50.90;;;;;;5071403;28;20258;-71
2022/04/04 10:48:36;;;;;;;4.13;3.83;;;11.30;51.40;;;;;;5062828;28;20261;-71
2022/04/04 10:51:19;;;;;;;3.22;2.92;;;13.10;49.70;;;;;;5069093;28;20218;-71
2022/04/04 10:53:49;;;;;;;3.60;3.05;;;13.50;47.10;;;;;;5067880;28;20168;-73
2022/04/04 10:56:26;;;;;;;2.75;2.55;;;13.80;46.40;;;;;;5073938;28;20215;-70
2022/04/04 10:59:13;;;;;;;3.17;2.42;;;12.90;46.80;;;;;;5066241;28;20175;-69
2022/04/04 11:01:39;;;;;;;4.38;3.15;;;12.40;48.30;;;;;;5077013;28;20263;-71
2022/04/04 11:04:05;;;;;;;2.80;2.47;;;12.60;48.80;;;;;;5086530;28;20181;-69
2022/04/04 11:09:26;;;;;;;4.28;2.70;;;13.60;47.60;;;;;;5067634;28;20665;-68
2022/04/04 11:12:01;;;;;;;2.00;1.90;;;13.20;46.00;;;;;;5081529;28;20233;-70
2022/04/04 11:14:39;;;;;;;3.30;2.55;;;13.10;46.50;;;;;;5071615;28;20171;-70
2022/04/04 11:17:52;;;;;;;2.95;2.75;;;14.10;45.60;;;;;;5063122;28;20250;-69
2022/04/04 11:20:04;;;;;;;3.00;2.80;;;14.80;43.80;;;;;;5073160;28;20209;-70
2022/04/04 11:22:33;;;;;;;3.10;2.90;;;14.30;46.70;;;;;;5068402;28;20558;-72
2022/04/04 11:25:06;;;;;;;3.00;2.80;;;14.30;46.20;;;;;;5074127;28;20183;-70
2022/04/04 11:27:35;;;;;;;2.83;2.63;;;15.10;47.40;;;;;;5079761;28;20678;-70
2022/04/04 11:30:06;;;;;;;3.15;2.95;;;16.60;46.20;;;;;;5075645;28;20210;-72
2022/04/04 11:32:34;;;;;;;5.40;2.60;;;17.70;42.70;;;;;;5068181;28;20638;-72
2022/04/04 11:35:14;;;;;;;3.20;2.90;;;18.80;40.70;;;;;;5067917;28;20183;-73
2022/04/04 11:38:07;;;;;;;2.70;2.50;;;19.30;39.00;;;;;;5065261;28;20540;-73
2022/04/04 11:40:38;;;;;;;2.70;2.50;;;20.10;37.80;;;;;;5058420;28;20192;-74
2022/04/04 11:43:06;;;;;;;2.95;2.30;;;20.90;37.40;;;;;;5061835;28;20186;-73
2022/04/04 11:45:36;;;;;;;2.63;2.47;;;21.20;35.90;;;;;;5063974;28;20171;-72
2022/04/04 11:48:06;;;;;;;3.35;2.60;;;20.90;35.40;;;;;;5054450;28;20219;-72
2022/04/04 11:50:34;;;;;;;4.28;2.42;;;20.00;36.60;;;;;;5051279;28;20207;-74
2022/04/04 11:53:08;;;;;;;2.35;2.25;;;19.80;36.30;;;;;;5050879;28;20172;-73
2022/04/04 11:55:37;;;;;;;3.80;2.83;;;19.60;35.40;;;;;;5062705;28;20187;-71
2022/04/04 11:58:12;;;;;;;2.50;2.40;;;18.60;36.80;;;;;;5051186;28;20221;-71
2022/04/04 12:00:43;;;;;;;2.90;2.70;;;17.40;38.20;;;;;;5051152;28;20175;-71
2022/04/04 12:03:13;;;;;;;2.72;2.53;;;17.30;38.60;;;;;;5062496;28;20182;-71
2022/04/04 12:05:43;;;;;;;2.45;2.25;;;17.50;38.60;;;;;;5062140;28;20199;-72
2022/04/04 12:08:10;;;;;;;3.22;2.95;;;18.10;37.90;;;;;;5063280;28;20682;-72
2022/04/04 12:10:37;;;;;;;2.95;2.70;;;18.30;37.50;;;;;;5086722;28;20293;-72
2022/04/04 12:13:13;;;;;;;2.90;2.70;;;16.80;38.80;;;;;;5082485;28;20174;-71
2022/04/04 12:15:43;;;;;;;2.33;2.22;;;16.60;40.30;;;;;;5073556;28;20554;-72
2022/04/04 12:18:09;;;;;;;4.88;3.35;;;16.90;39.60;;;;;;5071097;28;20179;-72
2022/04/04 12:20:43;;;;;;;2.90;2.70;;;16.80;39.20;;;;;;5069137;28;20188;-72
2022/04/04 12:26:01;;;;;;;3.25;2.72;;;17.40;39.90;;;;;;5075958;28;20221;-72
2022/04/04 12:28:30;;;;;;;3.22;2.90;;;17.40;39.50;;;;;;5071520;28;20184;-72
2022/04/04 12:30:56;;;;;;;3.22;3.03;;;16.60;39.90;;;;;;5070685;28;20229;-72
2022/04/04 12:33:31;;;;;;;3.05;2.83;;;17.00;40.70;;;;;;5075456;28;20334;-72
2022/04/04 12:35:57;;;;;;;3.15;2.95;;;17.10;39.80;;;;;;5075624;28;20204;-74
2022/04/04 12:38:29;;;;;;;3.55;3.33;;;16.70;41.00;;;;;;5082672;28;20658;-75
2022/04/04 12:41:09;;;;;;;3.65;2.97;;;17.10;39.50;;;;;;5084841;28;20187;-73
2022/04/04 12:43:37;;;;;;;3.53;3.03;;;17.30;39.00;;;;;;5072438;28;20205;-74
2022/04/04 12:46:21;;;;;;;8.25;3.40;;;17.40;39.70;;;;;;5070590;28;20202;-74
2022/04/04 12:48:47;;;;;;;3.58;2.90;;;17.00;40.20;;;;;;5054140;28;20164;-74
2022/04/04 12:51:25;;;;;;;3.67;3.45;;;16.40;41.70;;;;;;5071284;28;20199;-74
2022/04/04 12:53:53;;;;;;;3.85;3.45;;;16.30;41.30;;;;;;5072671;28;20580;-74
2022/04/04 12:56:19;;;;;;;3.25;3.05;;;16.30;41.00;;;;;;5066996;28;20697;-74
2022/04/04 12:59:08;;;;;;;3.47;3.22;;;16.30;40.70;;;;;;5085679;28;20668;-74
2022/04/04 13:01:35;;;;;;;4.20;2.67;;;16.00;41.10;;;;;;5077040;28;20270;-76
2022/04/04 13:04:00;;;;;;;3.65;3.35;;;16.20;40.90;;;;;;5076336;28;20184;-75
2022/04/04 13:06:31;;;;;;;3.72;3.33;;;15.70;41.10;;;;;;5084222;28;20222;-75